<?xml version="1.0" encoding="UTF-8" standalone="no" ?>
<gpx xmlns="http://www.topografix.com/GPX/1/1" xmlns:xsi="http://www.w3.org/2001/XMLSchema-instance" xsi:schemaLocation="http://www.topografix.com/GPX/1/1 http://www.topografix.com/GPX/1/1/gpx.xsd" version="1.1" creator="VisuGPX - https://www.visugpx.com">
  <metadata>
    <name>LA BRESSE SKI RANDO</name>
  </metadata>
  <trk>
    <name><![CDATA[14010023-BRESSE]]></name>
    <trkseg>
      <trkpt lat="48.03909" lon="6.97334">
        <ele>920</ele>
        <time>2021-12-07T08:16:07Z</time>
      </trkpt>
      <trkpt lat="48.03883" lon="6.97303">
        <ele>919</ele>
        <time>2021-12-07T08:16:34Z</time>
      </trkpt>
      <trkpt lat="48.03819" lon="6.97319">
        <ele>920</ele>
        <time>2021-12-07T08:17:26Z</time>
      </trkpt>
      <trkpt lat="48.03785" lon="6.97328">
        <ele>923</ele>
        <time>2021-12-07T08:17:53Z</time>
      </trkpt>
      <trkpt lat="48.03772" lon="6.97366">
        <ele>929</ele>
        <time>2021-12-07T08:18:16Z</time>
      </trkpt>
      <trkpt lat="48.03767" lon="6.97467">
        <ele>944</ele>
        <time>2021-12-07T08:19:10Z</time>
      </trkpt>
      <trkpt lat="48.03768" lon="6.97546">
        <ele>958</ele>
        <time>2021-12-07T08:19:53Z</time>
      </trkpt>
      <trkpt lat="48.03769" lon="6.97626">
        <ele>976</ele>
        <time>2021-12-07T08:20:35Z</time>
      </trkpt>
      <trkpt lat="48.03779" lon="6.97694">
        <ele>991</ele>
        <time>2021-12-07T08:21:13Z</time>
      </trkpt>
      <trkpt lat="48.03789" lon="6.97768">
        <ele>1006</ele>
        <time>2021-12-07T08:21:53Z</time>
      </trkpt>
      <trkpt lat="48.03784" lon="6.97822">
        <ele>1017</ele>
        <time>2021-12-07T08:22:22Z</time>
      </trkpt>
      <trkpt lat="48.03785" lon="6.97896">
        <ele>1027</ele>
        <time>2021-12-07T08:23:02Z</time>
      </trkpt>
      <trkpt lat="48.03766" lon="6.97949">
        <ele>1039</ele>
        <time>2021-12-07T08:23:34Z</time>
      </trkpt>
      <trkpt lat="48.03749" lon="6.98017">
        <ele>1051</ele>
        <time>2021-12-07T08:24:13Z</time>
      </trkpt>
      <trkpt lat="48.03723" lon="6.9807">
        <ele>1060</ele>
        <time>2021-12-07T08:24:48Z</time>
      </trkpt>
      <trkpt lat="48.03702" lon="6.98079">
        <ele>1066</ele>
        <time>2021-12-07T08:25:06Z</time>
      </trkpt>
      <trkpt lat="48.03665" lon="6.98106">
        <ele>1076</ele>
        <time>2021-12-07T08:25:39Z</time>
      </trkpt>
      <trkpt lat="48.03629" lon="6.98131">
        <ele>1083</ele>
        <time>2021-12-07T08:26:10Z</time>
      </trkpt>
      <trkpt lat="48.03611" lon="6.98156">
        <ele>1086</ele>
        <time>2021-12-07T08:26:30Z</time>
      </trkpt>
      <trkpt lat="48.03579" lon="6.98183">
        <ele>1091</ele>
        <time>2021-12-07T08:27:00Z</time>
      </trkpt>
      <trkpt lat="48.03554" lon="6.98218">
        <ele>1097</ele>
        <time>2021-12-07T08:27:27Z</time>
      </trkpt>
      <trkpt lat="48.03571" lon="6.98308">
        <ele>1101</ele>
        <time>2021-12-07T08:28:17Z</time>
      </trkpt>
      <trkpt lat="48.03559" lon="6.98391">
        <ele>1113</ele>
        <time>2021-12-07T08:29:02Z</time>
      </trkpt>
      <trkpt lat="48.03558" lon="6.98474">
        <ele>1122</ele>
        <time>2021-12-07T08:29:47Z</time>
      </trkpt>
      <trkpt lat="48.03557" lon="6.98568">
        <ele>1134</ele>
        <time>2021-12-07T08:30:37Z</time>
      </trkpt>
      <trkpt lat="48.03556" lon="6.98662">
        <ele>1140</ele>
        <time>2021-12-07T08:31:28Z</time>
      </trkpt>
      <trkpt lat="48.03529" lon="6.98755">
        <ele>1149</ele>
        <time>2021-12-07T08:32:22Z</time>
      </trkpt>
      <trkpt lat="48.03503" lon="6.98849">
        <ele>1152</ele>
        <time>2021-12-07T08:33:16Z</time>
      </trkpt>
      <trkpt lat="48.03466" lon="6.98911">
        <ele>1160</ele>
        <time>2021-12-07T08:34:01Z</time>
      </trkpt>
      <trkpt lat="48.03446" lon="6.98948">
        <ele>1164</ele>
        <time>2021-12-07T08:34:26Z</time>
      </trkpt>
      <trkpt lat="48.03412" lon="6.99071">
        <ele>1171</ele>
        <time>2021-12-07T08:35:38Z</time>
      </trkpt>
      <trkpt lat="48.03389" lon="6.99145">
        <ele>1177</ele>
        <time>2021-12-07T08:36:21Z</time>
      </trkpt>
      <trkpt lat="48.03387" lon="6.99221">
        <ele>1181</ele>
        <time>2021-12-07T08:37:02Z</time>
      </trkpt>
      <trkpt lat="48.03377" lon="6.99322">
        <ele>1189</ele>
        <time>2021-12-07T08:37:57Z</time>
      </trkpt>
      <trkpt lat="48.03371" lon="6.99452">
        <ele>1203</ele>
        <time>2021-12-07T08:39:06Z</time>
      </trkpt>
      <trkpt lat="48.03363" lon="6.99544">
        <ele>1216</ele>
        <time>2021-12-07T08:39:56Z</time>
      </trkpt>
      <trkpt lat="48.03294" lon="6.99874">
        <ele>1252</ele>
        <time>2021-12-07T08:43:01Z</time>
      </trkpt>
      <trkpt lat="48.03271" lon="6.9991">
        <ele>1254</ele>
        <time>2021-12-07T08:43:28Z</time>
      </trkpt>
      <trkpt lat="48.03247" lon="6.99921">
        <ele>1255</ele>
        <time>2021-12-07T08:43:48Z</time>
      </trkpt>
      <trkpt lat="48.03208" lon="6.9975">
        <ele>1245</ele>
        <time>2021-12-07T08:45:25Z</time>
      </trkpt>
      <trkpt lat="48.0317" lon="6.9951">
        <ele>1214</ele>
        <time>2021-12-07T08:47:37Z</time>
      </trkpt>
      <trkpt lat="48.03123" lon="6.99365">
        <ele>1194</ele>
        <time>2021-12-07T08:49:03Z</time>
      </trkpt>
      <trkpt lat="48.03088" lon="6.99125">
        <ele>1156</ele>
        <time>2021-12-07T08:51:15Z</time>
      </trkpt>
      <trkpt lat="48.03047" lon="6.98885">
        <ele>1103</ele>
        <time>2021-12-07T08:53:27Z</time>
      </trkpt>
      <trkpt lat="48.03018" lon="6.98712">
        <ele>1074</ele>
        <time>2021-12-07T08:55:03Z</time>
      </trkpt>
      <trkpt lat="48.0299" lon="6.98649">
        <ele>1072</ele>
        <time>2021-12-07T08:55:43Z</time>
      </trkpt>
      <trkpt lat="48.02937" lon="6.98694">
        <ele>1087</ele>
        <time>2021-12-07T08:56:32Z</time>
      </trkpt>
      <trkpt lat="48.02878" lon="6.9879">
        <ele>1104</ele>
        <time>2021-12-07T08:57:42Z</time>
      </trkpt>
      <trkpt lat="48.02805" lon="6.98903">
        <ele>1128</ele>
        <time>2021-12-07T08:59:06Z</time>
      </trkpt>
      <trkpt lat="48.0273" lon="6.99044">
        <ele>1143</ele>
        <time>2021-12-07T09:00:42Z</time>
      </trkpt>
      <trkpt lat="48.02689" lon="6.99122">
        <ele>1153</ele>
        <time>2021-12-07T09:01:36Z</time>
      </trkpt>
      <trkpt lat="48.02659" lon="6.99149">
        <ele>1161</ele>
        <time>2021-12-07T09:02:04Z</time>
      </trkpt>
      <trkpt lat="48.02501" lon="6.99455">
        <ele>1233</ele>
        <time>2021-12-07T09:05:31Z</time>
      </trkpt>
      <trkpt lat="48.02382" lon="6.99679">
        <ele>1291</ele>
        <time>2021-12-07T09:08:04Z</time>
      </trkpt>
      <trkpt lat="48.02271" lon="6.99869">
        <ele>1326</ele>
        <time>2021-12-07T09:10:19Z</time>
      </trkpt>
      <trkpt lat="48.02151" lon="7.00022">
        <ele>1345</ele>
        <time>2021-12-07T09:12:25Z</time>
      </trkpt>
      <trkpt lat="48.02116" lon="7.00078">
        <ele>1344</ele>
        <time>2021-12-07T09:13:06Z</time>
      </trkpt>
      <trkpt lat="48.0204" lon="6.99995">
        <ele>1338</ele>
        <time>2021-12-07T09:14:22Z</time>
      </trkpt>
      <trkpt lat="48.01895" lon="6.99908">
        <ele>1301</ele>
        <time>2021-12-07T09:16:27Z</time>
      </trkpt>
      <trkpt lat="48.0175" lon="6.99822">
        <ele>1244</ele>
        <time>2021-12-07T09:18:32Z</time>
      </trkpt>
      <trkpt lat="48.01606" lon="6.99737">
        <ele>1169</ele>
        <time>2021-12-07T09:20:35Z</time>
      </trkpt>
      <trkpt lat="48.01511" lon="6.99486">
        <ele>1052</ele>
        <time>2021-12-07T09:23:10Z</time>
      </trkpt>
      <trkpt lat="48.01619" lon="6.99692">
        <ele>1164</ele>
        <time>2021-12-07T09:25:30Z</time>
      </trkpt>
      <trkpt lat="48.01789" lon="6.99892">
        <ele>1262</ele>
        <time>2021-12-07T09:28:23Z</time>
      </trkpt>
      <trkpt lat="48.01929" lon="6.99977">
        <ele>1313</ele>
        <time>2021-12-07T09:30:24Z</time>
      </trkpt>
      <trkpt lat="48.02073" lon="7.00067">
        <ele>1342</ele>
        <time>2021-12-07T09:32:29Z</time>
      </trkpt>
      <trkpt lat="48.02166" lon="7.00078">
        <ele>1346</ele>
        <time>2021-12-07T09:33:44Z</time>
      </trkpt>
      <trkpt lat="48.02316" lon="6.99946">
        <ele>1325</ele>
        <time>2021-12-07T09:36:03Z</time>
      </trkpt>
      <trkpt lat="48.02431" lon="6.99807">
        <ele>1294</ele>
        <time>2021-12-07T09:38:02Z</time>
      </trkpt>
      <trkpt lat="48.02563" lon="6.99679">
        <ele>1254</ele>
        <time>2021-12-07T09:40:08Z</time>
      </trkpt>
      <trkpt lat="48.02651" lon="6.99374">
        <ele>1196</ele>
        <time>2021-12-07T09:43:06Z</time>
      </trkpt>
      <trkpt lat="48.0277" lon="6.99096">
        <ele>1137</ele>
        <time>2021-12-07T09:46:02Z</time>
      </trkpt>
      <trkpt lat="48.02923" lon="6.98786">
        <ele>1093</ele>
        <time>2021-12-07T09:49:29Z</time>
      </trkpt>
      <trkpt lat="48.02969" lon="6.98721">
        <ele>1081</ele>
        <time>2021-12-07T09:50:19Z</time>
      </trkpt>
      <trkpt lat="48.03045" lon="6.99001">
        <ele>1129</ele>
        <time>2021-12-07T09:53:01Z</time>
      </trkpt>
      <trkpt lat="48.03073" lon="6.99317">
        <ele>1182</ele>
        <time>2021-12-07T09:55:52Z</time>
      </trkpt>
      <trkpt lat="48.03126" lon="6.99564">
        <ele>1217</ele>
        <time>2021-12-07T09:58:11Z</time>
      </trkpt>
      <trkpt lat="48.03184" lon="6.99728">
        <ele>1242</ele>
        <time>2021-12-07T09:59:50Z</time>
      </trkpt>
      <trkpt lat="48.03224" lon="6.99869">
        <ele>1251</ele>
        <time>2021-12-07T10:01:12Z</time>
      </trkpt>
      <trkpt lat="48.03295" lon="6.99755">
        <ele>1247</ele>
        <time>2021-12-07T10:02:35Z</time>
      </trkpt>
      <trkpt lat="48.03347" lon="6.99459">
        <ele>1207</ele>
        <time>2021-12-07T10:05:19Z</time>
      </trkpt>
      <trkpt lat="48.03372" lon="6.99104">
        <ele>1174</ele>
        <time>2021-12-07T10:08:30Z</time>
      </trkpt>
      <trkpt lat="48.03373" lon="6.98995">
        <ele>1170</ele>
        <time>2021-12-07T10:09:29Z</time>
      </trkpt>
      <trkpt lat="48.03417" lon="6.98784">
        <ele>1174</ele>
        <time>2021-12-07T10:11:27Z</time>
      </trkpt>
      <trkpt lat="48.03478" lon="6.98501">
        <ele>1145</ele>
        <time>2021-12-07T10:14:06Z</time>
      </trkpt>
      <trkpt lat="48.03523" lon="6.98263">
        <ele>1105</ele>
        <time>2021-12-07T10:16:19Z</time>
      </trkpt>
      <trkpt lat="48.03597" lon="6.98108">
        <ele>1089</ele>
        <time>2021-12-07T10:18:01Z</time>
      </trkpt>
      <trkpt lat="48.03673" lon="6.98025">
        <ele>1072</ele>
        <time>2021-12-07T10:19:16Z</time>
      </trkpt>
      <trkpt lat="48.03761" lon="6.97803">
        <ele>1018</ele>
        <time>2021-12-07T10:21:34Z</time>
      </trkpt>
      <trkpt lat="48.03738" lon="6.97404">
        <ele>936</ele>
        <time>2021-12-07T10:25:09Z</time>
      </trkpt>
      <trkpt lat="48.03854" lon="6.9727">
        <ele>916</ele>
        <time>2021-12-07T10:27:06Z</time>
      </trkpt>
      <trkpt lat="48.03907" lon="6.97377">
        <ele>925</ele>
        <time>2021-12-07T10:28:17Z</time>
      </trkpt>
    </trkseg>
  </trk>
</gpx>